Time;durP1;ratioP1;P1;durP2;ratioP2;P2;SDS_P1;SDS_P2;PMS_P1;PMS_P2;Temp;Humidity;BMP_temperature;BMP_pressure;BME280_temperature;BME280_humidity;BME280_pressure;Samples;Min_cycle;Max_cycle;Signal;HPM_P1;HPM_P2
2021/10/03 00:01:23;;;;;;;3.80;2.60;;;;;;;17.28;68.32;99513.72;115708;1192;72625;-81
2021/10/03 00:03:53;;;;;;;3.00;1.80;;;;;;;17.31;68.27;99509.15;115818;1192;60873;-81
2021/10/03 00:06:22;;;;;;;5.20;2.20;;;;;;;17.34;68.15;99505.59;115715;1193;59903;-81
2021/10/03 00:08:51;;;;;;;5.20;2.30;;;;;;;17.37;68.10;99505.73;115672;1192;75644;-81
2021/10/03 00:11:18;;;;;;;4.10;2.20;;;;;;;17.41;67.98;99511.42;115810;1192;71020;-81
2021/10/03 00:13:45;;;;;;;4.50;2.70;;;;;;;17.45;67.87;99503.31;115669;1193;73130;-80
2021/10/03 00:16:12;;;;;;;6.00;2.60;;;;;;;17.47;67.93;99498.84;115724;1193;59609;-80
2021/10/03 00:18:40;;;;;;;5.30;2.90;;;;;;;17.47;67.99;99502.38;115772;1193;60967;-80
2021/10/03 00:21:10;;;;;;;3.80;2.50;;;;;;;17.46;68.12;99504.02;115730;1192;75453;-81
2021/10/03 00:23:38;;;;;;;4.80;2.80;;;;;;;17.47;68.17;99498.20;115694;1193;70455;-81
2021/10/03 00:26:05;;;;;;;5.80;3.10;;;;;;;17.48;68.11;99494.02;115670;1193;72609;-81
2021/10/03 00:28:32;;;;;;;3.30;2.10;;;;;;;17.51;68.08;99490.90;115647;1193;61900;-81
2021/10/03 00:30:59;;;;;;;4.20;2.50;;;;;;;17.56;67.86;99484.58;115809;1192;59975;-81
2021/10/03 00:33:26;;;;;;;5.50;2.70;;;;;;;17.59;67.86;99484.61;115671;1193;75676;-81
2021/10/03 00:35:53;;;;;;;4.40;2.90;;;;;;;17.63;67.69;99479.45;115736;1193;71206;-80
2021/10/03 00:38:19;;;;;;;4.90;2.60;;;;;;;17.65;67.79;99475.34;115740;1192;58814;-80
2021/10/03 00:40:46;;;;;;;4.40;2.50;;;;;;;17.68;67.55;99478.31;115715;1193;60504;-80
2021/10/03 00:43:15;;;;;;;3.80;2.60;;;;;;;17.71;67.63;99479.70;115601;1194;60289;-80
2021/10/03 00:45:42;;;;;;;6.10;3.10;;;;;;;17.73;67.58;99474.19;115813;1192;75639;-80
2021/10/03 00:48:08;;;;;;;3.80;2.50;;;;;;;17.76;67.44;99480.89;115830;1192;72099;-80
2021/10/03 00:50:38;;;;;;;4.30;2.50;;;;;;;17.78;67.31;99483.75;115769;1192;73791;-80
2021/10/03 00:53:05;;;;;;;7.30;2.70;;;;;;;17.81;67.21;99475.02;115651;1193;60380;-80
2021/10/03 00:55:33;;;;;;;5.40;2.80;;;;;;;17.83;67.28;99477.27;115661;1193;59920;-80
2021/10/03 00:58:01;;;;;;;4.30;2.90;;;;;;;17.83;67.28;99475.83;115646;1193;74583;-80
2021/10/03 01:00:30;;;;;;;4.70;2.60;;;;;;;17.83;67.32;99473.59;115670;1194;72460;-80
2021/10/03 01:03:01;;;;;;;3.60;2.00;;;;;;;17.83;67.26;99467.41;115790;1193;72302;-80
2021/10/03 01:05:28;;;;;;;3.60;2.20;;;;;;;17.85;67.23;99463.02;115839;1193;62719;-80
2021/10/03 01:07:55;;;;;;;4.40;3.30;;;;;;;17.86;67.12;99459.08;115744;1193;59560;-80
2021/10/03 01:10:24;;;;;;;3.40;2.30;;;;;;;17.86;67.21;99445.49;115869;1193;75857;-80
2021/10/03 01:12:56;;;;;;;4.40;2.80;;;;;;;17.86;67.04;99442.98;115664;1193;71657;-80
2021/10/03 01:15:25;;;;;;;5.60;2.40;;;;;;;17.88;66.78;99443.11;115755;1192;74888;-80
2021/10/03 01:17:51;;;;;;;4.00;2.60;;;;;;;17.91;66.73;99435.25;115795;1192;61921;-80
2021/10/03 01:20:18;;;;;;;5.80;2.80;;;;;;;17.93;66.60;99430.16;115763;1193;58860;-80
2021/10/03 01:22:45;;;;;;;4.80;2.30;;;;;;;17.94;66.40;99430.17;115795;1193;74544;-80
2021/10/03 01:25:12;;;;;;;4.70;2.80;;;;;;;17.96;66.46;99434.16;115742;1193;70540;-80
2021/10/03 01:27:39;;;;;;;4.80;2.20;;;;;;;17.96;66.52;99434.37;115627;1193;72521;-80
2021/10/03 01:30:09;;;;;;;4.30;2.20;;;;;;;17.96;66.41;99442.42;115693;1193;61635;-80
2021/10/03 01:32:36;;;;;;;4.00;2.10;;;;;;;17.96;66.27;99439.58;115775;1192;60425;-80
2021/10/03 01:35:04;;;;;;;3.70;2.50;;;;;;;17.96;66.31;99435.61;115777;1193;75611;-82
2021/10/03 01:37:32;;;;;;;6.90;2.70;;;;;;;17.98;66.01;99439.48;115722;1192;72299;-82
2021/10/03 01:40:01;;;;;;;4.70;2.80;;;;;;;18.01;65.98;99439.14;115674;1193;71641;-82
2021/10/03 01:42:28;;;;;;;6.90;2.80;;;;;;;18.04;65.83;99446.91;115718;1193;60265;-84
2021/10/03 01:44:54;;;;;;;4.50;2.60;;;;;;;18.08;65.69;99442.64;115739;1193;60628;-81
2021/10/03 01:47:21;;;;;;;3.90;2.20;;;;;;;18.10;65.68;99442.61;115771;1193;59531;-81
2021/10/03 01:49:48;;;;;;;3.50;2.00;;;;;;;18.10;65.42;99441.21;115755;1192;58877;-81
2021/10/03 01:52:15;;;;;;;4.40;2.60;;;;;;;18.12;65.39;99442.73;115756;1192;73770;-81
2021/10/03 01:54:42;;;;;;;4.60;2.50;;;;;;;18.13;65.28;99429.27;115659;1192;60264;-80
2021/10/03 01:57:09;;;;;;;5.20;2.80;;;;;;;18.13;65.14;99428.41;115671;1192;60590;-80
2021/10/03 01:59:36;;;;;;;3.90;2.40;;;;;;;18.14;65.05;99424.50;115601;1192;77272;-81
2021/10/03 02:02:03;;;;;;;4.90;2.70;;;;;;;18.17;65.17;99425.20;115651;1192;71190;-80
2021/10/03 02:04:29;;;;;;;5.00;2.60;;;;;;;18.17;65.08;99418.89;115821;1192;72994;-81
2021/10/03 02:06:57;;;;;;;5.20;2.20;;;;;;;18.17;64.85;99416.73;115669;1192;59218;-80
2021/10/03 02:09:27;;;;;;;2.80;1.70;;;;;;;18.19;64.79;99411.93;115781;1192;59946;-80
2021/10/03 02:11:58;;;;;;;3.80;2.50;;;;;;;18.19;64.76;99404.62;115783;1192;74551;-80
2021/10/03 02:14:30;;;;;;;4.70;3.10;;;;;;;18.19;64.67;99400.48;115816;1192;71217;-80
2021/10/03 02:17:01;;;;;;;4.20;2.60;;;;;;;18.20;64.50;99399.43;115773;1192;74268;-80
2021/10/03 02:19:29;;;;;;;3.70;2.30;;;;;;;18.21;64.49;99398.68;115760;1193;61685;-80
2021/10/03 02:21:57;;;;;;;3.80;2.20;;;;;;;18.21;64.51;99387.41;115702;1192;60600;-80
2021/10/03 02:24:23;;;;;;;4.00;2.30;;;;;;;18.20;64.71;99379.89;115796;1192;74553;-81
2021/10/03 02:26:50;;;;;;;4.20;2.70;;;;;;;18.19;64.71;99379.02;115718;1192;71503;-81
2021/10/03 02:29:17;;;;;;;4.70;2.00;;;;;;;18.17;64.66;99380.61;115769;1192;74661;-80
2021/10/03 02:31:43;;;;;;;3.30;2.20;;;;;;;18.16;64.63;99386.13;115554;1193;59960;-80
2021/10/03 02:34:10;;;;;;;4.50;2.20;;;;;;;18.17;64.63;99379.80;115702;1193;60269;-80
2021/10/03 02:36:37;;;;;;;6.70;2.90;;;;;;;18.14;64.47;99370.17;115753;1193;74756;-80
2021/10/03 02:39:03;;;;;;;3.60;2.30;;;;;;;18.15;64.54;99376.46;115668;1193;59575;-80
2021/10/03 02:41:30;;;;;;;4.30;2.40;;;;;;;18.16;64.24;99372.77;115717;1193;73645;-80
2021/10/03 02:43:59;;;;;;;4.00;1.80;;;;;;;18.18;64.09;99369.61;115715;1192;59585;-80
2021/10/03 02:46:26;;;;;;;5.20;3.00;;;;;;;18.21;63.96;99372.22;115706;1192;61300;-80
2021/10/03 02:48:53;;;;;;;3.00;2.10;;;;;;;18.25;63.81;99376.79;115746;1192;74632;-80
2021/10/03 02:51:22;;;;;;;3.80;2.20;;;;;;;18.26;63.77;99372.45;115741;1192;72067;-80
2021/10/03 02:53:49;;;;;;;3.70;2.30;;;;;;;18.28;63.78;99373.77;115778;1192;72628;-80
2021/10/03 02:56:18;;;;;;;4.20;2.20;;;;;;;18.28;63.78;99372.05;115711;1193;60410;-80
2021/10/03 02:58:45;;;;;;;4.40;2.50;;;;;;;18.28;63.85;99373.77;115740;1192;61180;-80
2021/10/03 03:01:13;;;;;;;3.10;1.80;;;;;;;18.26;63.75;99372.73;115625;1193;76234;-80
2021/10/03 03:03:39;;;;;;;3.90;2.50;;;;;;;18.27;63.66;99372.63;115725;1193;72313;-80
2021/10/03 03:06:07;;;;;;;7.80;2.50;;;;;;;18.31;63.47;99373.69;115789;1193;72724;-80
2021/10/03 03:08:34;;;;;;;3.70;2.20;;;;;;;18.36;63.55;99369.20;115688;1192;60105;-80
2021/10/03 03:11:01;;;;;;;3.50;2.20;;;;;;;18.39;63.34;99373.02;116084;1192;59998;-80
2021/10/03 03:13:28;;;;;;;4.10;1.80;;;;;;;18.42;63.09;99373.10;115684;1193;74786;-79
2021/10/03 03:15:56;;;;;;;3.70;2.10;;;;;;;18.48;62.83;99377.33;115824;1187;71130;-79
2021/10/03 03:18:23;;;;;;;3.70;1.90;;;;;;;18.57;62.54;99374.10;115692;1192;73580;-79
2021/10/03 03:20:50;;;;;;;3.30;2.10;;;;;;;18.64;62.25;99366.30;115746;1193;59982;-80
2021/10/03 03:23:17;;;;;;;3.70;2.20;;;;;;;18.70;62.19;99367.80;115842;1192;60506;-80
2021/10/03 03:25:43;;;;;;;7.60;2.40;;;;;;;18.76;61.86;99366.15;115854;1193;74754;-79
2021/10/03 03:28:11;;;;;;;4.50;2.90;;;;;;;18.81;61.50;99369.75;115780;1193;71355;-80
2021/10/03 03:30:38;;;;;;;3.80;2.30;;;;;;;18.86;61.36;99375.23;115764;1192;73655;-80
2021/10/03 03:33:05;;;;;;;3.80;2.10;;;;;;;18.89;61.33;99379.73;115756;1192;60252;-80
2021/10/03 03:35:32;;;;;;;4.90;2.00;;;;;;;18.91;61.26;99381.56;115877;1193;61720;-80
2021/10/03 03:38:00;;;;;;;4.90;1.60;;;;;;;18.94;61.06;99383.08;115697;1193;73537;-80
2021/10/03 03:40:26;;;;;;;2.20;1.50;;;;;;;18.94;60.92;99385.60;115783;1192;72131;-80
2021/10/03 03:42:53;;;;;;;2.90;1.80;;;;;;;18.96;60.80;99385.51;115799;1192;72366;-81
2021/10/03 03:45:20;;;;;;;5.10;2.00;;;;;;;18.97;60.90;99391.30;115619;1193;60383;-80
2021/10/03 03:47:46;;;;;;;3.40;1.90;;;;;;;18.97;60.88;99392.02;115766;1193;62067;-80
2021/10/03 03:50:15;;;;;;;3.00;1.90;;;;;;;18.97;60.80;99392.28;116147;1192;75609;-80
2021/10/03 03:52:42;;;;;;;4.10;2.30;;;;;;;18.97;60.71;99393.94;115785;1193;71886;-80
2021/10/03 03:55:10;;;;;;;4.20;2.10;;;;;;;18.98;60.82;99392.61;115827;1193;72541;-81
2021/10/03 03:57:36;;;;;;;5.30;2.50;;;;;;;18.98;60.96;99394.88;115755;1192;61910;-80
2021/10/03 04:00:06;;;;;;;2.90;1.90;;;;;;;18.99;60.85;99402.50;115914;1192;59979;-79
2021/10/03 04:02:33;;;;;;;3.20;1.90;;;;;;;19.02;60.97;99399.83;115797;1192;75170;-80
2021/10/03 04:05:00;;;;;;;3.60;2.00;;;;;;;19.03;60.84;99397.69;116031;1192;72416;-80
2021/10/03 04:07:26;;;;;;;3.60;2.00;;;;;;;19.04;60.71;99401.13;115806;1193;71518;-81
2021/10/03 04:09:53;;;;;;;3.80;2.30;;;;;;;19.08;60.63;99400.07;115797;1193;59347;-81
2021/10/03 04:12:19;;;;;;;2.80;2.10;;;;;;;19.14;60.57;99407.08;115793;1193;61343;-81
2021/10/03 04:14:46;;;;;;;3.40;2.10;;;;;;;19.20;60.43;99408.55;115939;1193;59000;-80
2021/10/03 04:17:13;;;;;;;4.20;2.40;;;;;;;19.26;60.43;99412.45;115622;1193;70839;-81
2021/10/03 04:19:39;;;;;;;6.60;2.20;;;;;;;19.30;60.56;99410.25;115797;1192;72387;-81
2021/10/03 04:22:06;;;;;;;4.40;2.40;;;;;;;19.33;60.56;99400.42;115659;1193;61293;-80
2021/10/03 04:24:32;;;;;;;4.10;2.80;;;;;;;19.36;60.71;99400.70;115787;1192;59000;-80
2021/10/03 04:26:59;;;;;;;3.70;2.50;;;;;;;19.37;60.84;99402.27;115790;1193;75173;-80
2021/10/03 04:29:25;;;;;;;2.60;1.60;;;;;;;19.37;61.10;99398.23;115786;1192;58975;-80
2021/10/03 04:31:52;;;;;;;6.40;2.10;;;;;;;19.36;61.35;99393.02;115823;1192;59110;-80
2021/10/03 04:34:19;;;;;;;4.10;2.60;;;;;;;19.34;61.49;99398.17;115687;1193;60252;-80
2021/10/03 04:36:45;;;;;;;3.50;2.20;;;;;;;19.32;61.59;99394.62;115923;1192;59244;-80
2021/10/03 04:39:12;;;;;;;3.30;1.80;;;;;;;19.30;61.60;99396.17;115747;1193;59194;-80
2021/10/03 04:41:39;;;;;;;6.30;2.30;;;;;;;19.27;61.73;99398.09;115823;1192;71149;-80
2021/10/03 04:44:05;;;;;;;4.80;1.90;;;;;;;19.25;61.80;99397.49;115620;1193;73602;-80
2021/10/03 04:46:32;;;;;;;4.60;2.40;;;;;;;19.22;62.06;99392.44;115839;1193;59156;-80
2021/10/03 04:48:58;;;;;;;3.60;2.00;;;;;;;19.19;62.15;99390.00;115674;1193;60081;-82
2021/10/03 04:51:25;;;;;;;3.20;2.20;;;;;;;19.16;62.18;99381.59;115890;1192;59365;-81
2021/10/03 04:53:51;;;;;;;3.60;2.20;;;;;;;19.15;62.05;99393.75;115869;1193;71171;-81
2021/10/03 04:56:18;;;;;;;3.70;1.70;;;;;;;19.14;62.17;99384.17;115821;1192;72664;-81
2021/10/03 04:58:44;;;;;;;5.20;2.50;;;;;;;19.14;61.95;99389.66;115756;1193;60092;-81
2021/10/03 05:01:11;;;;;;;3.50;1.90;;;;;;;19.13;61.97;99390.58;115831;1192;59354;-81
2021/10/03 05:03:38;;;;;;;4.10;2.00;;;;;;;19.13;61.56;99396.48;115730;1192;74586;-80
2021/10/03 05:06:07;;;;;;;2.80;1.80;;;;;;;19.17;61.52;99389.88;115775;1193;71191;-80
2021/10/03 05:08:35;;;;;;;3.80;2.20;;;;;;;19.18;61.47;99393.55;115856;1193;71616;-80
2021/10/03 05:11:02;;;;;;;3.30;1.70;;;;;;;19.19;61.32;99394.63;115810;1187;60293;-80
2021/10/03 05:13:29;;;;;;;3.30;2.10;;;;;;;19.18;61.28;99398.71;115924;1192;61585;-80
2021/10/03 05:15:56;;;;;;;3.90;2.40;;;;;;;19.18;61.23;99397.90;115819;1192;75552;-81
2021/10/03 05:18:23;;;;;;;3.10;1.80;;;;;;;19.18;61.03;99392.31;115710;1192;72470;-82
2021/10/03 05:20:50;;;;;;;4.70;2.80;;;;;;;19.19;61.01;99389.40;115743;1193;72601;-82
2021/10/03 05:23:18;;;;;;;3.10;1.90;;;;;;;19.19;60.99;99385.59;115809;1193;60477;-81
2021/10/03 05:25:45;;;;;;;5.70;2.50;;;;;;;19.18;61.12;99381.45;115766;1193;60217;-80
2021/10/03 05:28:12;;;;;;;4.30;2.20;;;;;;;19.17;61.06;99382.89;115667;1193;74576;-81
2021/10/03 05:30:38;;;;;;;5.00;2.70;;;;;;;19.16;60.97;99381.00;115723;1193;73038;-80
2021/10/03 05:33:05;;;;;;;5.30;2.20;;;;;;;19.16;61.00;99383.97;115712;1193;59007;-80
2021/10/03 05:35:31;;;;;;;3.10;1.80;;;;;;;19.16;60.99;99386.06;115642;1192;61378;-80
2021/10/03 05:37:58;;;;;;;4.00;2.00;;;;;;;19.16;61.03;99384.29;115766;1193;60020;-80
2021/10/03 05:40:24;;;;;;;3.00;2.10;;;;;;;19.15;61.03;99383.70;115760;1186;60321;-80
2021/10/03 05:42:51;;;;;;;3.70;1.90;;;;;;;19.14;61.32;99380.09;115669;1193;59152;-80
2021/10/03 05:45:17;;;;;;;2.70;1.80;;;;;;;19.09;61.80;99378.23;115819;1193;66523;-80
2021/10/03 05:47:44;;;;;;;3.70;2.00;;;;;;;19.02;62.18;99380.48;115713;1193;59822;-80
2021/10/03 05:50:11;;;;;;;3.30;1.70;;;;;;;18.93;62.30;99380.06;115743;1193;59458;-80
2021/10/03 05:52:38;;;;;;;4.50;2.00;;;;;;;18.85;62.34;99380.25;115708;1193;74640;-80
2021/10/03 05:55:05;;;;;;;3.60;2.30;;;;;;;18.77;62.45;99384.98;115830;1192;70868;-80
2021/10/03 05:57:31;;;;;;;3.90;2.00;;;;;;;18.71;62.58;99389.17;115809;1192;72500;-80
2021/10/03 05:59:58;;;;;;;3.20;2.20;;;;;;;18.66;62.65;99387.58;115812;1192;59229;-80
2021/10/03 06:02:24;;;;;;;7.20;2.20;;;;;;;18.62;62.61;99383.00;115633;1193;60409;-80
2021/10/03 06:04:51;;;;;;;2.90;2.00;;;;;;;18.61;62.58;99391.26;115624;1193;75130;-80
2021/10/03 06:07:17;;;;;;;4.00;2.20;;;;;;;18.60;62.67;99390.71;115769;1193;58919;-80
2021/10/03 06:09:44;;;;;;;2.90;2.00;;;;;;;18.59;62.43;99393.89;115738;1192;58972;-80
2021/10/03 06:12:11;;;;;;;2.20;1.50;;;;;;;18.60;62.41;99400.49;115733;1192;61359;-80
2021/10/03 06:14:38;;;;;;;4.60;2.10;;;;;;;18.61;62.25;99399.64;115643;1193;61226;-80
2021/10/03 06:17:04;;;;;;;3.40;2.20;;;;;;;18.62;62.24;99396.65;115687;1193;74699;-80
2021/10/03 06:19:31;;;;;;;6.80;2.10;;;;;;;18.63;62.26;99395.41;115641;1193;72171;-80
2021/10/03 06:22:00;;;;;;;5.60;2.30;;;;;;;18.65;62.04;99393.86;115806;1193;59752;-80
2021/10/03 06:24:27;;;;;;;3.50;2.10;;;;;;;18.68;61.64;99394.84;115725;1193;61379;-80
2021/10/03 06:26:54;;;;;;;3.10;1.80;;;;;;;18.73;61.56;99394.23;115640;1187;61399;-80
2021/10/03 06:29:20;;;;;;;4.00;2.10;;;;;;;18.76;61.47;99396.45;115673;1193;76322;-80
2021/10/03 06:31:47;;;;;;;3.70;2.60;;;;;;;18.79;61.52;99399.61;115622;1193;72241;-81
2021/10/03 06:34:14;;;;;;;3.60;2.20;;;;;;;18.80;61.38;99397.27;115772;1192;73581;-80
2021/10/03 06:36:40;;;;;;;3.00;1.50;;;;;;;18.80;61.18;99398.66;115674;1193;62151;-80
2021/10/03 06:39:07;;;;;;;4.70;1.70;;;;;;;18.81;61.38;99403.13;115799;1192;58671;-80
2021/10/03 06:41:37;;;;;;;3.10;2.20;;;;;;;18.83;61.11;99409.14;115734;1193;74659;-90
2021/10/03 06:44:06;;;;;;;12.00;7.60;;;;;;;18.85;61.18;99404.09;115760;1193;72062;-76
2021/10/03 06:46:33;;;;;;;12.80;7.50;;;;;;;18.87;61.31;99408.19;115711;1193;74476;-76
2021/10/03 06:49:00;;;;;;;3.90;2.20;;;;;;;18.90;61.27;99409.55;115620;1192;60121;-76
2021/10/03 06:51:27;;;;;;;4.50;2.60;;;;;;;18.93;61.12;99408.64;115656;1193;59787;-76
2021/10/03 06:53:53;;;;;;;4.30;1.90;;;;;;;18.96;60.72;99410.27;115652;1193;74828;-75
2021/10/03 06:56:20;;;;;;;3.10;1.80;;;;;;;18.98;60.48;99409.16;115657;1193;71973;-76
2021/10/03 06:58:47;;;;;;;3.40;1.60;;;;;;;19.03;60.49;99411.81;115654;1193;58950;-76
2021/10/03 07:01:15;;;;;;;4.10;2.00;;;;;;;19.05;60.35;99409.79;115614;1193;60468;-76
2021/10/03 07:03:43;;;;;;;5.20;2.10;;;;;;;19.09;60.24;99414.64;115620;1192;59813;-76
2021/10/03 07:06:11;;;;;;;4.50;1.70;;;;;;;19.13;60.16;99416.92;115682;1192;76321;-75
2021/10/03 07:08:38;;;;;;;2.90;1.60;;;;;;;19.17;60.12;99420.11;115797;1192;71273;-76
2021/10/03 07:11:04;;;;;;;4.50;1.90;;;;;;;19.21;60.01;99428.56;115780;1192;73162;-76
2021/10/03 07:13:31;;;;;;;4.00;2.30;;;;;;;19.24;59.74;99428.88;115698;1193;61894;-76
2021/10/03 07:15:57;;;;;;;4.10;2.10;;;;;;;19.25;59.54;99435.99;115686;1193;58909;-76
2021/10/03 07:18:24;;;;;;;2.70;1.80;;;;;;;19.27;59.47;99432.98;115650;1193;74463;-76
2021/10/03 07:20:51;;;;;;;3.00;1.80;;;;;;;19.26;59.26;99437.19;115687;1193;58894;-76
2021/10/03 07:23:17;;;;;;;5.50;2.20;;;;;;;19.26;58.83;99436.64;115605;1193;59603;-75
2021/10/03 07:25:44;;;;;;;2.80;1.70;;;;;;;19.29;59.23;99434.23;115656;1193;60279;-75
2021/10/03 07:28:10;;;;;;;2.40;1.60;;;;;;;19.30;58.87;99431.77;115716;1193;59934;-75
2021/10/03 07:30:38;;;;;;;2.30;1.50;;;;;;;19.31;58.78;99432.95;115727;1192;75249;-76
2021/10/03 07:33:05;;;;;;;3.60;1.30;;;;;;;19.34;58.73;99433.17;115592;1193;70845;-75
2021/10/03 07:35:31;;;;;;;3.30;1.90;;;;;;;19.36;58.51;99435.40;115768;1192;72439;-75
2021/10/03 07:37:58;;;;;;;3.60;1.80;;;;;;;19.39;58.69;99436.53;115642;1192;59304;-75
2021/10/03 07:40:24;;;;;;;3.90;1.90;;;;;;;19.41;58.49;99433.46;115727;1193;59905;-75
2021/10/03 07:42:50;;;;;;;3.60;2.00;;;;;;;19.44;58.66;99434.16;115889;1192;59124;-75
2021/10/03 07:45:17;;;;;;;3.80;1.80;;;;;;;19.46;58.44;99435.37;115620;1192;58870;-76
2021/10/03 07:47:44;;;;;;;2.50;1.70;;;;;;;19.48;58.06;99431.34;115657;1193;74010;-75
2021/10/03 07:50:11;;;;;;;3.50;1.80;;;;;;;19.47;58.01;99427.63;115715;1192;60101;-75
2021/10/03 07:52:38;;;;;;;2.80;1.80;;;;;;;19.45;57.72;99427.95;115681;1193;61098;-75
2021/10/03 07:55:04;;;;;;;2.60;1.90;;;;;;;19.43;57.65;99433.96;115676;1193;74755;-76
2021/10/03 07:57:31;;;;;;;2.60;1.70;;;;;;;19.43;57.72;99431.86;115635;1193;71936;-76
2021/10/03 07:59:58;;;;;;;3.40;2.20;;;;;;;19.43;57.87;99432.25;115725;1193;73577;-76
2021/10/03 08:02:24;;;;;;;4.50;1.40;;;;;;;19.43;57.92;99433.10;115685;1193;61320;-76
2021/10/03 08:04:51;;;;;;;3.10;2.20;;;;;;;19.40;57.45;99436.91;115724;1193;59989;-75
2021/10/03 08:07:18;;;;;;;2.70;1.80;;;;;;;19.38;57.47;99440.61;115684;1192;59478;-75
2021/10/03 08:09:44;;;;;;;3.50;1.90;;;;;;;19.34;57.42;99450.39;115733;1193;58955;-74
2021/10/03 08:12:11;;;;;;;4.10;1.60;;;;;;;19.30;57.28;99453.06;115694;1193;72938;-75
2021/10/03 08:14:38;;;;;;;4.60;1.70;;;;;;;19.27;57.27;99450.84;115887;1192;61056;-75
2021/10/03 08:17:05;;;;;;;3.60;1.80;;;;;;;19.26;57.28;99446.33;115701;1193;58886;-77
2021/10/03 08:19:31;;;;;;;5.20;1.90;;;;;;;19.26;56.76;99453.53;115715;1193;73755;-77
2021/10/03 08:21:58;;;;;;;3.70;1.90;;;;;;;19.26;56.93;99449.61;115680;1193;71000;-76
2021/10/03 08:24:25;;;;;;;2.50;1.40;;;;;;;19.25;56.60;99447.02;115736;1193;72515;-76
2021/10/03 08:26:52;;;;;;;2.70;1.50;;;;;;;19.25;56.39;99449.16;115685;1193;62691;-76
2021/10/03 08:29:19;;;;;;;2.90;1.50;;;;;;;19.26;56.30;99454.17;115668;1193;61451;-76
2021/10/03 08:31:45;;;;;;;3.60;1.60;;;;;;;19.28;56.04;99454.61;115905;1192;74724;-77
2021/10/03 08:34:12;;;;;;;4.00;1.60;;;;;;;19.30;55.83;99449.46;115693;1192;71889;-77
2021/10/03 08:36:39;;;;;;;5.90;1.80;;;;;;;19.31;55.53;99446.17;115684;1193;72673;-76
2021/10/03 08:39:05;;;;;;;2.70;1.70;;;;;;;19.33;55.96;99449.37;115754;1193;59351;-76
2021/10/03 08:41:32;;;;;;;3.40;1.60;;;;;;;19.35;55.74;99445.71;115615;1193;60407;-76
2021/10/03 08:43:59;;;;;;;2.90;2.10;;;;;;;19.37;55.72;99440.83;115962;1192;74481;-76
2021/10/03 08:46:27;;;;;;;2.80;1.60;;;;;;;19.40;55.42;99444.55;115647;1192;72049;-76
2021/10/03 08:48:55;;;;;;;2.70;1.50;;;;;;;19.44;55.08;99448.91;115723;1192;72513;-76
2021/10/03 08:51:23;;;;;;;2.20;1.40;;;;;;;19.48;55.16;99449.57;115641;1193;60860;-76
2021/10/03 08:53:50;;;;;;;2.60;1.70;;;;;;;19.54;54.88;99456.96;115603;1193;61292;-76
2021/10/03 08:56:17;;;;;;;2.70;1.50;;;;;;;19.61;55.18;99459.13;115681;1192;74784;-77
2021/10/03 08:58:44;;;;;;;2.70;1.90;;;;;;;19.65;54.50;99455.77;115979;1192;72047;-76
2021/10/03 09:01:13;;;;;;;3.20;1.60;;;;;;;19.71;54.39;99455.63;115692;1192;71778;-76
2021/10/03 09:03:41;;;;;;;5.90;1.80;;;;;;;19.77;54.05;99456.67;115794;1193;61608;-76
2021/10/03 09:06:09;;;;;;;2.90;1.60;;;;;;;19.81;54.01;99459.27;115739;1193;60372;-76
2021/10/03 09:08:42;;;;;;;2.50;1.20;;;;;;;19.86;53.82;99455.99;115839;1192;74361;-76
2021/10/03 09:11:14;;;;;;;4.00;1.40;;;;;;;19.92;53.57;99459.19;115692;1186;72756;-76
2021/10/03 09:13:50;;;;;;;3.90;1.40;;;;;;;20.01;53.20;99461.89;115811;1193;72638;-76
2021/10/03 09:16:26;;;;;;;2.90;1.80;;;;;;;20.10;52.42;99464.10;115710;1192;60313;-76
2021/10/03 09:18:56;;;;;;;2.80;1.40;;;;;;;20.23;52.21;99464.48;115726;1193;61379;-76
2021/10/03 09:21:28;;;;;;;2.50;1.80;;;;;;;20.34;52.14;99469.50;115808;1192;74977;-76
2021/10/03 09:23:58;;;;;;;2.80;1.50;;;;;;;20.43;51.67;99471.87;115714;1193;71382;-76
2021/10/03 09:26:25;;;;;;;2.20;1.40;;;;;;;20.51;51.39;99469.55;115831;1192;73325;-76
2021/10/03 09:28:52;;;;;;;2.10;1.20;;;;;;;20.60;51.48;99473.49;115604;1192;61131;-76
2021/10/03 09:31:21;;;;;;;3.50;1.80;;;;;;;20.64;50.96;99467.95;115840;1192;60465;-76
2021/10/03 09:33:55;;;;;;;2.80;1.60;;;;;;;20.66;50.94;99467.14;115719;1192;74764;-76
2021/10/03 09:36:23;;;;;;;;;;;;;;;20.67;50.58;99464.27;115785;1192;71876;-76
2021/10/03 09:39:05;;;;;;;4.20;1.40;;;;;;;20.67;50.24;99470.53;115704;1193;73693;-76
2021/10/03 09:41:33;;;;;;;2.10;1.20;;;;;;;20.68;50.03;99471.82;115625;1193;59349;-76
2021/10/03 09:44:07;;;;;;;1.90;1.20;;;;;;;20.72;49.81;99471.77;115665;1193;60099;-76
2021/10/03 09:46:45;;;;;;;2.90;1.80;;;;;;;20.78;49.95;99475.63;115823;1192;75887;-76
2021/10/03 09:49:14;;;;;;;2.50;1.70;;;;;;;20.85;49.51;99479.13;115711;1192;71719;-75
2021/10/03 09:51:46;;;;;;;3.20;1.60;;;;;;;20.92;49.11;99475.39;115831;1192;72516;-76
2021/10/03 09:54:15;;;;;;;2.70;1.30;;;;;;;21.02;49.47;99472.19;115698;1193;60328;-76
2021/10/03 09:56:42;;;;;;;2.10;1.30;;;;;;;21.11;49.29;99472.00;115796;1192;61426;-76
2021/10/03 09:59:09;;;;;;;8.50;1.60;;;;;;;21.21;48.77;99468.08;115712;1193;74581;-76
2021/10/03 10:01:38;;;;;;;2.40;1.40;;;;;;;21.28;48.83;99473.77;115746;1192;70726;-76
2021/10/03 10:04:09;;;;;;;2.60;1.50;;;;;;;21.31;48.06;99476.40;115890;1192;73891;-76
2021/10/03 10:06:36;;;;;;;2.10;1.40;;;;;;;21.31;47.93;99472.84;115676;1192;61329;-76
2021/10/03 10:09:09;;;;;;;3.30;1.60;;;;;;;21.30;48.18;99468.96;115734;1192;60297;-76
2021/10/03 10:11:57;;;;;;;2.40;1.60;;;;;;;21.29;48.17;99467.07;115791;1192;75845;-76
2021/10/03 10:14:33;;;;;;;3.30;1.80;;;;;;;21.31;48.07;99475.10;115765;1192;71412;-76
2021/10/03 10:17:38;;;;;;;3.10;1.50;;;;;;;21.35;47.74;99478.86;115719;1193;72406;-76
2021/10/03 10:20:16;;;;;;;2.20;1.30;;;;;;;21.43;47.81;99471.10;115903;1192;60126;-76
2021/10/03 10:23:25;;;;;;;3.50;1.60;;;;;;;21.44;47.83;99475.67;115719;1193;60208;-76
2021/10/03 10:25:57;;;;;;;2.40;1.10;;;;;;;21.43;47.45;99472.06;115510;1195;75770;-75
2021/10/03 10:28:29;;;;;;;3.90;1.50;;;;;;;21.39;47.51;99467.10;115775;1192;72267;-75
2021/10/03 10:31:17;;;;;;;3.20;1.80;;;;;;;21.38;47.90;99468.61;115855;1192;72812;-76
2021/10/03 10:33:50;;;;;;;3.10;1.40;;;;;;;21.35;48.24;99465.54;115851;1192;60083;-76
2021/10/03 10:36:25;;;;;;;2.90;1.80;;;;;;;21.35;48.01;99468.46;115703;1193;60187;-76
2021/10/03 10:39:07;;;;;;;5.80;2.30;;;;;;;21.41;47.97;99462.61;115844;1192;74285;-76
2021/10/03 10:41:39;;;;;;;4.30;1.80;;;;;;;21.53;47.91;99459.93;115706;1192;71699;-76
2021/10/03 10:44:24;;;;;;;2.40;1.50;;;;;;;21.67;47.69;99461.32;115776;1193;71148;-76
2021/10/03 10:46:53;;;;;;;3.90;1.90;;;;;;;21.81;47.53;99458.85;115747;1193;60002;-76
2021/10/03 10:49:42;;;;;;;3.10;1.60;;;;;;;21.90;47.45;99456.10;115608;1193;60242;-76
2021/10/03 10:52:18;;;;;;;2.80;1.40;;;;;;;21.95;47.36;99460.11;115869;1192;75635;-76
2021/10/03 10:55:04;;;;;;;2.90;1.50;;;;;;;21.97;46.81;99460.80;115931;1192;72940;-76
2021/10/03 10:57:46;;;;;;;4.10;1.60;;;;;;;21.96;47.19;99460.33;115969;1192;72526;-76
2021/10/03 11:00:19;;;;;;;3.20;1.70;;;;;;;21.89;47.24;99461.19;115664;1192;60526;-76
2021/10/03 11:02:50;;;;;;;2.60;1.50;;;;;;;21.80;47.48;99459.34;115769;1193;59239;-76
2021/10/03 11:05:31;;;;;;;2.10;1.10;;;;;;;21.74;47.44;99456.46;115731;1193;74548;-76
2021/10/03 11:08:15;;;;;;;3.00;1.30;;;;;;;21.68;47.81;99460.02;115784;1192;70721;-76
2021/10/03 11:10:59;;;;;;;5.00;1.60;;;;;;;21.57;47.67;99463.52;115782;1192;73631;-76
2021/10/03 11:13:41;;;;;;;2.80;1.40;;;;;;;21.50;47.92;99466.80;115746;1193;61348;-77
2021/10/03 11:16:30;;;;;;;2.40;1.20;;;;;;;21.44;48.15;99468.61;115769;1192;60193;-76
2021/10/03 11:19:34;;;;;;;3.70;1.90;;;;;;;21.40;48.31;99464.56;115772;1192;74518;-76
2021/10/03 11:22:05;;;;;;;2.40;1.60;;;;;;;21.35;48.81;99456.90;115588;1192;72237;-76
2021/10/03 11:24:35;;;;;;;2.50;1.30;;;;;;;21.36;49.00;99460.86;115655;1193;73504;-76
2021/10/03 11:27:08;;;;;;;3.70;1.50;;;;;;;21.37;48.99;99461.86;115618;1193;60399;-76
2021/10/03 11:29:40;;;;;;;4.40;1.80;;;;;;;21.40;48.90;99462.83;115727;1186;61311;-76
2021/10/03 11:32:13;;;;;;;3.10;1.70;;;;;;;21.44;48.88;99461.10;115702;1193;75521;-76